CheckWX is a tool to help pilots better visualize weather data.  It is not intended as a substitute for an official pre-flight weather briefing.

12:34:37 UTC

BIRK TAF
Reykjavik Airport
Reykjavik, Iceland
TAF BIRK 211103Z 2112/2212 23015G25KT 9999 -SHSN FEW015CB BKN030 TX01/2209Z TNM00/2115Z TEMPO 2112/2203 1500 SHSN BKN005CB OVC025 BECMG 2118/2121 18012KT BECMG 2202/2204 08015KT BECMG 2205/2207 36022KT

Mar-21@
12:00 UTC

Mar-21 @ 12:00 UTC

Mar-21@
18:00 UTC

Mar-21 @ 18:00 UTC

TAF BIRK 211103Z 2112/2212 23015G25KT 9999 -SHSN FEW015CB BKN030 TX01/2209Z TNM00/2115Z
Wind
  • 230° at 15 KTS
  • {Gusting to 25 KTS
Conditions
Light Snow
Cloud Levels
  • Few at 1,500' AGL
  • Broken at 3,000' AGL

Mar-21@
12:00 UTC

Mar-21 @ 12:00 UTC

Mar-22@
03:00 UTC

Mar-22 @ 03:00 UTC

TEMPO 2112/2203 1500 SHSN BKN005CB OVC025

Temporary

Temporary Changes expected for less than half the time period

Conditions
Snow
Cloud Levels
  • Broken at 500' AGL
  • Overcast at 2,500' AGL

Mar-21@
18:00 UTC

Mar-21 @ 18:00 UTC

Mar-22@
02:00 UTC

Mar-22 @ 02:00 UTC

BECMG 2118/2121 18012KT

Becoming

Becoming Conditions expected by Thu, Mar 21, 2019 @ 21:00 UTC

Wind
  • 180° at 12 KTS
Conditions
Light Snow
Cloud Levels
  • Few at 1,500' AGL
  • Broken at 3,000' AGL

Mar-22@
02:00 UTC

Mar-22 @ 02:00 UTC

Mar-22@
05:00 UTC

Mar-22 @ 05:00 UTC

BECMG 2202/2204 08015KT

Becoming

Becoming Conditions expected by Fri, Mar 22, 2019 @ 04:00 UTC

Wind
  • 080° at 15 KTS
Conditions
Light Snow
Cloud Levels
  • Few at 1,500' AGL
  • Broken at 3,000' AGL

Mar-22@
05:00 UTC

Mar-22 @ 05:00 UTC

Mar-22@
12:00 UTC

Mar-22 @ 12:00 UTC

BECMG 2205/2207 36022KT

Becoming

Becoming Conditions expected by Fri, Mar 22, 2019 @ 07:00 UTC

Wind
  • 360° at 22 KTS
Conditions
Light Snow
Cloud Levels
  • Few at 1,500' AGL
  • Broken at 3,000' AGL